Santo Antonio do Amparo, Brazil
Current Conditions -  °F | °C
As of 12:00 PM on Thursday 18 Dec 2014 (Local Time) from SBBQ Reporting Station
Few Clouds Few Clouds  
Wind Chill: 81°   Ceiling: Unl
Heat Index: 81°   Visibility: 6mi
Dew Point: 61°   Wind: 6mph
Humidity: 51%   Direction: 340°NNW
Pressure: 30.06"   Gusts: NA
Location:  20.95°S, 44.92°W
Report Text: SBBQ 181400Z 34005KT 9999 FEW037 27/16 Q1018
Loading
Personal Weather Stations






























Interactive Weather Map New forecast layout! Learn more

10-Day Weather Forecast

Advertisements
Track Severe Weather on mobile